createdAt,value
2022-11-17T00:02:13.678Z,10.38
2022-11-17T00:04:40.381Z,10.34
2022-11-17T00:07:06.934Z,10.35
2022-11-17T00:09:33.636Z,10.37
2022-11-17T00:12:22.487Z,10.35
2022-11-17T00:14:54.144Z,10.30
2022-11-17T00:17:22.956Z,10.33
2022-11-17T00:20:08.110Z,10.32
2022-11-17T00:22:34.753Z,10.34
2022-11-17T00:25:01.279Z,10.32
2022-11-17T00:27:27.901Z,10.33
2022-11-17T00:29:54.488Z,10.33
2022-11-17T00:32:39.755Z,10.37
2022-11-17T00:35:07.076Z,10.36
2022-11-17T00:37:37.433Z,10.32
2022-11-17T00:40:09.484Z,10.33
2022-11-17T00:42:36.040Z,10.33
2022-11-17T00:45:05.544Z,10.38
2022-11-17T00:47:36.137Z,10.39
2022-11-17T00:50:02.692Z,10.34
2022-11-17T00:52:31.507Z,10.41
2022-11-17T00:54:58.200Z,10.31
2022-11-17T00:57:25.280Z,10.43
2022-11-17T00:59:52.108Z,10.42
2022-11-17T01:02:18.819Z,10.45
2022-11-17T01:04:45.372Z,10.43
2022-11-17T01:07:11.983Z,10.38
2022-11-17T01:09:38.698Z,10.33
2022-11-17T01:12:05.652Z,10.45
2022-11-17T01:14:32.743Z,10.45
2022-11-17T01:16:59.446Z,10.41
2022-11-17T01:19:26.040Z,10.46
2022-11-17T01:21:52.718Z,10.34
2022-11-17T01:24:19.295Z,10.50
2022-11-17T01:26:46.451Z,10.53
2022-11-17T01:29:19.285Z,10.53
2022-11-17T01:31:50.632Z,10.54
2022-11-17T01:34:17.602Z,10.54
2022-11-17T01:37:03.572Z,10.56
2022-11-17T01:39:31.312Z,10.57
2022-11-17T01:41:58.767Z,10.57
2022-11-17T01:44:54.247Z,10.60
2022-11-17T01:47:25.624Z,10.61
2022-11-17T01:50:00.691Z,10.57
2022-11-17T01:52:29.263Z,10.65
2022-11-17T01:54:57.036Z,10.64
2022-11-17T01:57:33.141Z,10.63
2022-11-17T02:00:07.964Z,10.71
2022-11-17T02:02:37.408Z,10.69
2022-11-17T02:05:41.930Z,10.73
2022-11-17T02:08:10.038Z,10.72
2022-11-17T02:10:38.310Z,10.67
2022-11-17T02:13:05.612Z,10.74
2022-11-17T02:15:32.214Z,10.79
2022-11-17T02:18:00.172Z,10.73
2022-11-17T02:20:32.907Z,10.82
2022-11-17T02:23:05.324Z,10.84
2022-11-17T02:25:50.622Z,10.85
2022-11-17T02:28:48.787Z,10.85
2022-11-17T02:31:24.447Z,10.85
2022-11-17T02:34:12.086Z,10.85
2022-11-17T02:36:57.042Z,10.83
2022-11-17T02:39:55.436Z,10.87
2022-11-17T02:42:55.605Z,10.84
2022-11-17T02:45:28.896Z,10.84
2022-11-17T02:48:00.565Z,10.84
2022-11-17T02:50:28.941Z,10.79
2022-11-17T02:52:56.539Z,10.85
2022-11-17T02:55:23.176Z,10.83
2022-11-17T02:57:49.854Z,10.86
2022-11-17T03:00:20.099Z,10.86
2022-11-17T03:03:18.787Z,10.84
2022-11-17T03:05:48.364Z,10.85
2022-11-17T03:08:31.597Z,10.86
2022-11-17T03:11:04.037Z,10.86
2022-11-17T03:13:46.543Z,10.87
2022-11-17T03:16:30.215Z,10.87
2022-11-17T03:19:25.564Z,10.86
2022-11-17T03:22:10.792Z,10.88
2022-11-17T03:24:42.242Z,10.89
2022-11-17T03:27:16.015Z,10.92
2022-11-17T03:29:50.219Z,10.92
2022-11-17T03:32:18.155Z,10.91
2022-11-17T03:34:52.147Z,10.91
2022-11-17T03:37:23.050Z,10.86
2022-11-17T03:39:53.282Z,10.86
2022-11-17T03:42:26.266Z,10.82
2022-11-17T03:45:03.158Z,10.74
2022-11-17T03:47:32.809Z,10.73
2022-11-17T03:49:59.266Z,10.69
2022-11-17T03:52:29.676Z,10.66
2022-11-17T03:54:58.927Z,10.43
2022-11-17T03:57:32.638Z,10.60
2022-11-17T04:00:10.584Z,10.57
2022-11-17T04:02:41.883Z,10.56
2022-11-17T04:05:12.308Z,10.65
2022-11-17T04:07:43.659Z,10.65
2022-11-17T04:10:19.344Z,10.68
2022-11-17T04:13:06.510Z,10.73
2022-11-17T04:15:52.050Z,10.80
2022-11-17T04:18:19.824Z,10.88
2022-11-17T04:20:50.636Z,10.91
2022-11-17T04:23:17.625Z,10.96
2022-11-17T04:26:07.795Z,10.93
2022-11-17T04:28:36.919Z,11.02
2022-11-17T04:31:09.381Z,11.03
2022-11-17T04:33:37.820Z,11.08
2022-11-17T04:36:05.850Z,11.03
2022-11-17T04:38:32.530Z,11.13
2022-11-17T04:41:25.059Z,11.11
2022-11-17T04:43:51.900Z,11.15
2022-11-17T04:46:24.952Z,11.17
2022-11-17T04:48:54.474Z,11.17
2022-11-17T04:51:22.243Z,11.17
2022-11-17T04:53:49.242Z,11.11
2022-11-17T04:56:16.275Z,11.15
2022-11-17T04:58:43.117Z,11.09
2022-11-17T05:01:12.612Z,11.12
2022-11-17T05:03:43.300Z,11.11
2022-11-17T05:06:11.909Z,11.11
2022-11-17T05:08:39.167Z,11.08
2022-11-17T05:11:25.603Z,11.10
2022-11-17T05:13:52.886Z,11.09
2022-11-17T05:16:41.620Z,11.05
2022-11-17T05:19:16.511Z,11.03
2022-11-17T05:21:43.159Z,11.09
2022-11-17T05:24:10.307Z,11.09
2022-11-17T05:26:38.369Z,11.09
2022-11-17T05:29:11.726Z,11.05
2022-11-17T05:31:38.905Z,11.10
2022-11-17T05:34:07.436Z,11.11
2022-11-17T05:36:34.476Z,11.10
2022-11-17T05:39:01.131Z,11.09
2022-11-17T05:41:30.425Z,11.09
2022-11-17T05:43:57.363Z,11.13
2022-11-17T05:46:24.950Z,11.11
2022-11-17T05:48:52.558Z,11.14
2022-11-17T05:51:21.509Z,11.03
2022-11-17T05:53:48.692Z,11.07
2022-11-17T05:56:33.769Z,11.14
2022-11-17T05:59:13.581Z,11.09
2022-11-17T06:01:49.411Z,11.09
2022-11-17T06:04:19.574Z,11.12
2022-11-17T06:06:47.661Z,11.08
2022-11-17T06:09:14.482Z,11.05
2022-11-17T06:11:41.262Z,11.07
2022-11-17T06:14:07.945Z,11.12
2022-11-17T06:16:38.250Z,11.15
2022-11-17T06:19:11.977Z,11.11
2022-11-17T06:22:09.786Z,11.16
2022-11-17T06:24:25.451Z,11.15
2022-11-17T06:26:52.550Z,11.19
2022-11-17T06:29:21.875Z,11.14
2022-11-17T06:31:48.779Z,11.18
2022-11-17T06:34:15.687Z,11.20
2022-11-17T06:36:42.242Z,11.18
2022-11-17T06:39:08.842Z,11.21
2022-11-17T06:41:36.919Z,11.21
2022-11-17T06:44:03.498Z,11.10
2022-11-17T06:46:38.002Z,11.21
2022-11-17T06:49:08.258Z,11.19
2022-11-17T06:51:43.775Z,11.21
2022-11-17T06:54:12.446Z,11.20
2022-11-17T06:56:39.059Z,11.16
2022-11-17T06:59:05.835Z,11.15
2022-11-17T07:01:32.498Z,11.12
2022-11-17T07:03:59.105Z,11.14
2022-11-17T07:06:25.710Z,11.11
2022-11-17T07:08:52.312Z,11.10
2022-11-17T07:11:19.279Z,11.09
2022-11-17T07:13:46.050Z,11.07
2022-11-17T07:16:21.723Z,11.07
2022-11-17T07:18:50.668Z,10.98
2022-11-17T07:21:18.097Z,11.02
2022-11-17T07:24:35.481Z,11.05
2022-11-17T07:27:02.203Z,11.01
2022-11-17T07:29:30.558Z,11.02
2022-11-17T07:31:57.426Z,11.01
2022-11-17T07:34:26.371Z,11.00
2022-11-17T07:36:52.966Z,11.01
2022-11-17T07:39:22.178Z,10.95
2022-11-17T07:41:49.048Z,11.00
2022-11-17T07:44:15.643Z,10.98
2022-11-17T07:46:44.709Z,11.00
2022-11-17T07:49:11.339Z,10.93
2022-11-17T07:51:40.297Z,10.91
2022-11-17T07:54:07.062Z,10.91
2022-11-17T07:56:34.471Z,10.94
2022-11-17T07:59:01.300Z,10.95
2022-11-17T08:01:28.010Z,11.14
2022-11-17T08:03:54.653Z,11.07
2022-11-17T08:06:22.747Z,11.00
2022-11-17T08:08:49.900Z,11.02
2022-11-17T08:11:16.838Z,11.01
2022-11-17T08:13:43.756Z,11.02
2022-11-17T08:16:14.438Z,11.03
2022-11-17T08:18:41.291Z,11.04
2022-11-17T08:21:10.132Z,11.03
2022-11-17T08:23:37.968Z,11.09
2022-11-17T08:26:09.537Z,11.11
2022-11-17T08:28:39.703Z,11.09
2022-11-17T08:31:16.512Z,11.14
2022-11-17T08:33:50.155Z,11.12
2022-11-17T08:36:17.590Z,11.10
2022-11-17T08:38:44.167Z,11.10
2022-11-17T08:41:10.787Z,11.10
2022-11-17T08:43:39.702Z,11.06
2022-11-17T08:46:10.531Z,11.11
2022-11-17T08:48:37.424Z,11.13
2022-11-17T08:51:06.190Z,11.01
2022-11-17T08:53:32.896Z,11.11
2022-11-17T08:55:59.842Z,11.05
2022-11-17T08:58:26.763Z,11.11
2022-11-17T09:00:53.440Z,11.02
2022-11-17T09:03:20.145Z,11.04
2022-11-17T09:05:50.028Z,11.03
2022-11-17T09:08:43.792Z,11.03
2022-11-17T09:11:07.822Z,11.02
2022-11-17T09:13:37.220Z,10.92
2022-11-17T09:16:05.908Z,11.01
2022-11-17T09:18:33.291Z,11.02
2022-11-17T09:21:07.784Z,11.00
2022-11-17T09:23:34.856Z,11.02
2022-11-17T09:26:12.921Z,11.01
2022-11-17T09:28:44.167Z,11.00
2022-11-17T09:31:15.364Z,11.02
2022-11-17T09:33:42.891Z,11.00
2022-11-17T09:36:11.044Z,11.01
2022-11-17T09:38:38.971Z,10.98
2022-11-17T09:41:27.771Z,11.04
2022-11-17T09:44:02.663Z,11.07
2022-11-17T09:46:35.347Z,11.11
2022-11-17T09:49:12.081Z,11.15
2022-11-17T09:51:42.488Z,11.18
2022-11-17T09:54:30.398Z,11.20
2022-11-17T09:56:59.336Z,11.28
2022-11-17T09:59:29.119Z,11.33
2022-11-17T10:01:58.502Z,11.30
2022-11-17T10:04:31.860Z,11.41
2022-11-17T10:06:58.758Z,11.42
2022-11-17T10:09:36.756Z,11.44
2022-11-17T10:12:26.851Z,11.43
2022-11-17T10:14:55.210Z,11.42
2022-11-17T10:17:26.270Z,11.48
2022-11-17T10:19:52.955Z,11.50
2022-11-17T10:22:33.325Z,11.51
2022-11-17T10:24:59.995Z,11.51
2022-11-17T10:27:32.574Z,11.52
2022-11-17T10:30:20.904Z,11.61
2022-11-17T10:32:54.837Z,11.64
2022-11-17T10:35:23.156Z,11.67
2022-11-17T10:38:12.914Z,11.68
2022-11-17T10:40:39.470Z,11.70
2022-11-17T10:43:18.556Z,11.66
2022-11-17T10:45:46.753Z,11.60
2022-11-17T10:48:30.341Z,11.57
2022-11-17T10:51:04.210Z,11.53
2022-11-17T10:53:44.956Z,11.55
2022-11-17T10:56:19.980Z,11.56
2022-11-17T10:59:01.340Z,11.57
2022-11-17T11:01:34.071Z,11.57
2022-11-17T11:04:04.397Z,11.67
2022-11-17T11:06:34.064Z,11.74
2022-11-17T11:09:10.569Z,11.71
2022-11-17T11:11:41.143Z,11.78
2022-11-17T11:14:38.553Z,11.78
2022-11-17T11:17:15.789Z,11.75
2022-11-17T11:19:46.147Z,11.75
2022-11-17T11:22:51.847Z,11.79
2022-11-17T11:25:38.062Z,11.81
2022-11-17T11:28:32.734Z,11.80
2022-11-17T11:31:07.618Z,11.82
2022-11-17T11:33:43.156Z,11.82
2022-11-17T11:36:33.311Z,11.80
2022-11-17T11:39:13.217Z,11.74
2022-11-17T11:41:46.073Z,11.76
2022-11-17T11:44:43.695Z,11.74
2022-11-17T11:47:25.563Z,11.73
2022-11-17T11:50:04.554Z,11.71
2022-11-17T11:52:35.858Z,11.60
2022-11-17T11:55:02.608Z,11.67
2022-11-17T11:57:39.068Z,11.66
2022-11-17T12:00:15.063Z,11.63
2022-11-17T12:02:43.657Z,11.61
2022-11-17T12:05:19.594Z,11.66
2022-11-17T12:08:10.203Z,11.66
2022-11-17T12:11:28.111Z,11.65
2022-11-17T12:13:57.162Z,11.63
2022-11-17T12:16:37.174Z,11.65
2022-11-17T12:19:42.466Z,11.65
2022-11-17T12:22:09.760Z,11.63
2022-11-17T12:24:42.144Z,11.64
2022-11-17T12:27:32.273Z,11.65
2022-11-17T12:29:58.939Z,11.59
2022-11-17T12:32:44.010Z,11.64
2022-11-17T12:35:27.821Z,11.63
2022-11-17T12:38:22.200Z,11.59
2022-11-17T12:40:52.235Z,11.54
2022-11-17T12:43:24.013Z,11.59
2022-11-17T12:45:53.555Z,11.59
2022-11-17T12:48:36.285Z,11.61
2022-11-17T12:51:37.294Z,11.61
2022-11-17T12:54:22.227Z,11.59
2022-11-17T12:57:00.996Z,11.61
2022-11-17T12:59:51.943Z,11.61
2022-11-17T13:02:41.880Z,11.61
2022-11-17T13:05:16.040Z,11.61
2022-11-17T13:07:42.722Z,11.61
2022-11-17T13:10:31.401Z,11.62
2022-11-17T13:13:23.960Z,11.64
2022-11-17T13:15:53.481Z,11.60
2022-11-17T13:18:22.802Z,11.66
2022-11-17T13:20:49.634Z,11.65
2022-11-17T13:23:25.867Z,11.70
2022-11-17T13:26:30.309Z,11.74
2022-11-17T13:29:19.325Z,11.76
2022-11-17T13:31:46.814Z,11.81
2022-11-17T13:34:21.197Z,11.85
2022-11-17T13:36:59.122Z,11.85
2022-11-17T13:39:29.133Z,11.82
2022-11-17T13:41:58.031Z,11.88
2022-11-17T13:44:27.565Z,11.91
2022-11-17T13:46:54.392Z,11.89
2022-11-17T13:49:34.564Z,11.89
2022-11-17T13:52:02.782Z,11.92
2022-11-17T13:54:29.921Z,11.92
2022-11-17T13:57:03.557Z,11.95
2022-11-17T13:59:38.726Z,11.97
2022-11-17T14:02:22.844Z,11.97
2022-11-17T14:05:19.347Z,11.98
2022-11-17T14:07:47.118Z,12.00
2022-11-17T14:10:20.590Z,11.99
2022-11-17T14:12:51.250Z,12.00
2022-11-17T14:15:25.724Z,11.99
2022-11-17T14:17:55.451Z,11.99
2022-11-17T14:20:31.863Z,12.01
2022-11-17T14:23:11.759Z,12.01
2022-11-17T14:25:41.542Z,12.01
2022-11-17T14:28:16.616Z,11.99
2022-11-17T14:30:43.551Z,12.00
2022-11-17T14:33:13.627Z,11.98
2022-11-17T14:35:40.868Z,11.89
2022-11-17T14:38:10.636Z,11.89
2022-11-17T14:40:37.353Z,11.92
2022-11-17T14:43:03.855Z,11.84
2022-11-17T14:45:34.162Z,11.86
2022-11-17T14:48:30.553Z,11.85
2022-11-17T14:51:06.032Z,11.82
2022-11-17T14:53:36.763Z,11.80
2022-11-17T14:56:16.543Z,11.81
2022-11-17T14:58:45.295Z,11.78
2022-11-17T15:01:17.802Z,11.79
2022-11-17T15:03:45.662Z,11.79
2022-11-17T15:06:19.506Z,11.74
2022-11-17T15:08:46.710Z,11.69
2022-11-17T15:11:17.954Z,11.67
2022-11-17T15:13:44.855Z,11.58
2022-11-17T15:16:12.179Z,11.62
2022-11-17T15:18:39.170Z,11.57
2022-11-17T15:21:07.868Z,11.55
2022-11-17T15:23:37.353Z,11.55
2022-11-17T15:26:10.721Z,11.50
2022-11-17T15:29:03.382Z,11.47
2022-11-17T15:31:30.016Z,11.44
2022-11-17T15:34:01.293Z,11.42
2022-11-17T15:36:30.870Z,11.40
2022-11-17T15:39:06.318Z,11.38
2022-11-17T15:41:33.275Z,11.37
2022-11-17T15:44:00.028Z,11.36
2022-11-17T15:46:26.688Z,11.32
2022-11-17T15:48:53.395Z,11.32
2022-11-17T15:54:16.715Z,11.28
2022-11-17T15:56:49.012Z,11.21
2022-11-17T15:59:16.121Z,11.19
2022-11-17T16:01:43.201Z,11.15
2022-11-17T16:04:15.974Z,11.18
2022-11-17T16:06:46.955Z,11.11
2022-11-17T16:09:15.303Z,11.15
2022-11-17T16:11:42.411Z,11.14
2022-11-17T16:14:09.236Z,11.11
2022-11-17T16:16:40.751Z,11.12
2022-11-17T16:19:07.748Z,11.09
2022-11-17T16:21:37.544Z,11.10
2022-11-17T16:24:04.199Z,11.07
2022-11-17T16:26:31.490Z,11.10
2022-11-17T16:29:04.277Z,11.02
2022-11-17T16:31:33.089Z,11.10
2022-11-17T16:34:00.863Z,11.12
2022-11-17T16:36:34.537Z,11.15
2022-11-17T16:39:04.404Z,11.13
2022-11-17T16:41:34.666Z,11.11
2022-11-17T16:44:02.094Z,11.10
2022-11-17T16:46:32.006Z,11.07
2022-11-17T16:49:04.424Z,11.06
2022-11-17T16:51:31.068Z,11.04
2022-11-17T16:54:05.578Z,10.99
2022-11-17T16:56:33.092Z,10.94
2022-11-17T16:58:59.963Z,10.91
2022-11-17T17:01:30.528Z,10.90
2022-11-17T17:03:59.555Z,10.87
2022-11-17T17:06:29.395Z,10.85
2022-11-17T17:08:57.952Z,10.81
2022-11-17T17:11:25.373Z,10.78
2022-11-17T17:13:54.109Z,10.74
2022-11-17T17:16:20.963Z,10.71
2022-11-17T17:18:48.398Z,10.65
2022-11-17T17:21:19.025Z,10.60
2022-11-17T17:23:45.838Z,10.57
2022-11-17T17:26:16.701Z,10.54
2022-11-17T17:28:44.717Z,10.51
2022-11-17T17:31:21.401Z,10.31
2022-11-17T17:33:50.317Z,10.44
2022-11-17T17:36:22.381Z,10.41
2022-11-17T17:38:55.376Z,10.35
2022-11-17T17:41:24.601Z,10.34
2022-11-17T17:44:02.991Z,10.30
2022-11-17T17:46:31.513Z,10.27
2022-11-17T17:48:58.567Z,10.18
2022-11-17T17:51:28.586Z,10.23
2022-11-17T17:54:00.707Z,10.22
2022-11-17T17:56:27.660Z,10.15
2022-11-17T17:58:55.567Z,10.17
2022-11-17T18:01:29.717Z,10.14
2022-11-17T18:04:01.481Z,10.10
2022-11-17T18:06:31.893Z,10.04
2022-11-17T18:08:59.442Z,10.00
2022-11-17T18:11:28.124Z,10.00
2022-11-17T18:13:54.768Z,9.96
2022-11-17T18:16:26.782Z,9.96
2022-11-17T18:19:02.358Z,9.91
2022-11-17T18:21:30.149Z,9.87
2022-11-17T18:24:02.069Z,9.86
2022-11-17T18:26:31.756Z,9.83
2022-11-17T18:29:06.660Z,9.78
2022-11-17T18:31:35.473Z,9.80
2022-11-17T18:34:14.201Z,9.79
2022-11-17T18:36:40.893Z,9.75
2022-11-17T18:39:07.523Z,9.67
2022-11-17T18:41:36.048Z,9.71
2022-11-17T18:44:02.914Z,9.68
2022-11-17T18:46:31.688Z,9.67
2022-11-17T18:48:59.176Z,9.65
2022-11-17T18:51:28.120Z,9.63
2022-11-17T18:53:57.504Z,9.64
2022-11-17T18:56:28.517Z,9.60
2022-11-17T18:58:58.099Z,9.58
2022-11-17T19:01:28.007Z,9.57
2022-11-17T19:03:56.286Z,9.56
2022-11-17T19:06:24.947Z,9.53
2022-11-17T19:08:52.669Z,9.49
2022-11-17T19:11:20.607Z,9.54
2022-11-17T19:13:47.769Z,9.52
2022-11-17T19:16:23.082Z,9.52
2022-11-17T19:18:52.020Z,9.50
2022-11-17T19:21:33.666Z,9.46
2022-11-17T19:24:03.178Z,9.45
2022-11-17T19:26:32.391Z,9.42
2022-11-17T19:29:11.196Z,9.39
2022-11-17T19:31:41.217Z,9.42
2022-11-17T19:34:10.466Z,9.37
2022-11-17T19:36:37.492Z,9.42
2022-11-17T19:39:04.417Z,9.41
2022-11-17T19:41:38.551Z,9.37
2022-11-17T19:44:09.248Z,9.38
2022-11-17T19:46:36.389Z,9.35
2022-11-17T19:49:04.515Z,9.31
2022-11-17T19:51:33.563Z,9.36
2022-11-17T19:54:06.273Z,9.34
2022-11-17T19:56:35.628Z,9.33
2022-11-17T19:59:03.463Z,9.32
2022-11-17T20:01:31.132Z,9.30
2022-11-17T20:04:02.175Z,9.26
2022-11-17T20:06:34.032Z,9.26
2022-11-17T20:09:00.760Z,9.24
2022-11-17T20:11:28.598Z,9.24
2022-11-17T20:13:55.837Z,9.23
2022-11-17T20:16:24.766Z,9.20
2022-11-17T20:18:59.603Z,9.19
2022-11-17T20:21:28.578Z,9.15
2022-11-17T20:23:58.980Z,9.17
2022-11-17T20:26:29.001Z,9.15
2022-11-17T20:28:57.011Z,9.12
2022-11-17T20:31:27.891Z,9.12
2022-11-17T20:34:00.574Z,9.10
2022-11-17T20:36:28.772Z,9.04
2022-11-17T20:38:57.759Z,9.05
2022-11-17T20:41:25.041Z,9.03
2022-11-17T20:43:55.834Z,9.01
2022-11-17T20:46:23.258Z,8.98
2022-11-17T20:48:53.529Z,8.90
2022-11-17T20:51:21.778Z,8.89
2022-11-17T20:53:51.212Z,8.85
2022-11-17T20:56:18.508Z,8.88
2022-11-17T20:58:45.599Z,8.89
2022-11-17T21:01:15.025Z,8.88
2022-11-17T21:03:42.095Z,8.87
2022-11-17T21:06:09.394Z,8.85
2022-11-17T21:08:38.143Z,8.85
2022-11-17T21:11:09.636Z,8.83
2022-11-17T21:13:37.400Z,8.77
2022-11-17T21:16:10.572Z,8.77
2022-11-17T21:18:38.899Z,8.80
2022-11-17T21:21:11.851Z,8.79
2022-11-17T21:23:39.896Z,8.75
2022-11-17T21:26:07.736Z,8.75
2022-11-17T21:28:35.556Z,8.78
2022-11-17T21:31:15.792Z,8.70
2022-11-17T21:33:45.571Z,8.76
2022-11-17T21:36:19.746Z,8.74
2022-11-17T21:38:49.378Z,8.72
2022-11-17T21:41:21.582Z,8.73
2022-11-17T21:43:52.246Z,8.67
2022-11-17T21:46:20.978Z,8.70
2022-11-17T21:48:48.290Z,8.64
2022-11-17T21:51:18.112Z,8.66
2022-11-17T21:53:47.369Z,8.63
2022-11-17T21:56:14.037Z,8.61
2022-11-17T21:58:41.363Z,8.64
2022-11-17T22:01:10.163Z,8.62
2022-11-17T22:03:37.593Z,8.57
2022-11-17T22:06:13.341Z,8.59
2022-11-17T22:08:41.773Z,8.56
2022-11-17T22:11:38.738Z,8.55
2022-11-17T22:14:13.271Z,8.53
2022-11-17T22:16:42.548Z,8.51
2022-11-17T22:19:10.164Z,8.52
2022-11-17T22:21:37.428Z,8.50
2022-11-17T22:24:08.334Z,8.48
2022-11-17T22:26:38.446Z,8.48
2022-11-17T22:29:11.372Z,8.46
2022-11-17T22:31:37.983Z,8.36
2022-11-17T22:34:04.578Z,8.37
2022-11-17T22:36:33.919Z,8.39
2022-11-17T22:39:00.440Z,8.35
2022-11-17T22:41:29.511Z,8.36
2022-11-17T22:43:59.264Z,8.37
2022-11-17T22:46:27.950Z,8.31
2022-11-17T22:48:54.786Z,8.26
2022-11-17T22:51:40.377Z,8.31
2022-11-17T22:54:08.178Z,8.32
2022-11-17T22:56:34.917Z,8.23
2022-11-17T22:59:01.593Z,8.29
2022-11-17T23:01:28.115Z,8.29
2022-11-17T23:03:54.826Z,8.26
2022-11-17T23:06:23.025Z,8.21
2022-11-17T23:08:50.447Z,8.21
2022-11-17T23:14:08.297Z,8.17
2022-11-17T23:16:35.567Z,8.18
2022-11-17T23:19:02.164Z,8.18
2022-11-17T23:21:28.813Z,8.15
2022-11-17T23:23:55.873Z,8.07
2022-11-17T23:26:22.635Z,8.12
2022-11-17T23:28:49.542Z,8.05
2022-11-17T23:31:18.986Z,8.05
2022-11-17T23:33:47.620Z,8.08
2022-11-17T23:36:19.751Z,8.00
2022-11-17T23:38:47.291Z,8.02
2022-11-17T23:41:16.097Z,8.01
2022-11-17T23:43:45.485Z,8.04
2022-11-17T23:46:15.065Z,8.01
2022-11-17T23:48:42.616Z,8.03
2022-11-17T23:51:15.119Z,8.00
2022-11-17T23:53:42.282Z,7.96
2022-11-17T23:56:10.255Z,8.00
2022-11-17T23:58:37.698Z,7.97
